Terminal Aerodrome Forecast
Issued by NWS

Home | Current Version | Previous Version | Graphics & Text | Print | Product List | Glossary On
Versions: 1 2 3 4 5 6 7 8 9 10 11 12 13 14 15 16 17 18 19 20 21 22 23 24
860
FTUS45 KGGW 232320
TAFGDV
TAF
KGDV 232320Z 2400/2424 32006KT P6SM BKN100
     FM240200 32005KT P6SM SCT090
     FM241000 36005KT 4SM BR FEW180
     FM241500 VRB03KT P6SM FEW140
     FM242100 12007KT P6SM SKC=

USA.gov is the U.S. government's official web portal to all federal, state and local government web resources and services.